GFA weather

Malmstrom Air Force Base
Great Falls, Montana, United States

Public forecast

Using degrees Fahrenheit for public forecast. Weather courtesy of forecast.io.

METAR (pilot weather report)

Retrieved 2019/07/20 07:58 UTC (38 minutes ago):

KGFA 200758Z AUTO 22007KT 10SM CLR 08/01 A3005 RMK AO2 SLP174 T00780006 $

TAF (pilot weather forecast)

Retrieved 2019/07/20 03:03 UTC (6 hours ago):

TAF KGFA 200300Z 2003/2109 29009KT 9999 SKC QNH2997INS BECMG 2006/2007 VRB06KT 9999 SKC QNH3004INS BECMG 2020/2021 24009KT 9999 SKC QNH3005INS BECMG 2103/2104 VRB06KT 9999 SKC QNH3008INS BECMG 2107/2108 VRB06KT 9999 SCT010 QNH3022INS TX24/2022Z TN08/2011Z